Home   Weather   USA   Chula Vista   Past weeks
Flag for USA

Past Weather in Chula Vista, California, USA — Yesterday and Last 2 Weeks

Currently: 50 °F. Passing clouds. (Weather station: Brown Field Municipal Airport, USA). See more current weather

Past Weather in Chula Vista — Graph

°F

Chula Vista Temperature Yesterday

Maximum temperature yesterday: 69 °F (at 12:53 pm)
Minimum temperature yesterday: 43 °F (at 1:53 am)
Average temperature yesterday: 56 °F

High & Low Weather Summary for the Past Weeks

 TemperatureHumidityPressure
High82 °F (Feb 22, 12:53 pm)93% (Feb 25, 4:53 am)30.28 "Hg (Feb 25, 4:53 am)
Low38 °F (Feb 27, 5:53 am)7% (Mar 1, 11:53 am)29.80 "Hg (Mar 3, 4:53 am)
Average56 °F52%30.06 "Hg
* Reported Feb 19 6:53 am — Mar 6 6:05 am, Chula Vista. Weather by CustomWeather, © 2021

Note: Actual official high and low records may vary slightly from our data, if they occured in-between our weather recording intervals... More about our weather records

Chula Vista Weather History for the Previous 24 Hours

Scroll right to see more
 ConditionsComfort  
Time TempWeatherWind HumidityBarometerVisibility
6:05 am
Sat, Mar 6
50 °FPassing clouds.6 mph86%30.06 "Hg9 mi
4:53 am51 °FFog.3 mph89%30.04 "Hg5 mi
4:21 am50 °FFog.3 mph93%30.04 "Hg5 mi
3:53 am50 °FFog.6 mph89%30.03 "Hg1 mi
3:41 am50 °FFog.3 mph89%30.04 "Hg0 mi
3:11 am51 °FFog.No wind89%30.03 "Hg0 mi
3:01 am51 °FFog.5 mph92%30.03 "Hg0 mi
2:35 am51 °FFog.No wind92%30.03 "Hg0 mi
2:24 am52 °FFog.No wind93%30.04 "Hg1 mi
1:53 am51 °FFog.No wind92%30.03 "Hg0 mi
1:05 am51 °FFog.3 mph92%30.04 "Hg0 mi
12:53 am52 °FFog.No wind89%30.03 "Hg1 mi
12:39 am51 °FFog.5 mph92%30.03 "Hg1 mi
11:53 pm
Fri, Mar 5
54 °FFog.No wind90%30.03 "Hg0 mi
11:33 pm52 °FFog.No wind93%30.05 "Hg0 mi
10:53 pm53 °FFog.No wind89%30.03 "Hg0 mi
10:26 pm54 °FFog.No wind90%30.05 "Hg0 mi
10:01 pm54 °FFog.No wind90%30.05 "Hg1 mi
9:36 pm53 °FFog.No wind93%30.06 "Hg2 mi
9:12 pm53 °FFog.No wind93%30.06 "Hg0 mi
8:53 pm53 °FFog.No wind89%30.05 "Hg2 mi
7:53 pm54 °FClear.No wind86%30.04 "Hg9 mi
6:53 pm56 °FClear.7 mph84%30.03 "Hg10 mi
5:53 pm57 °FClear.7 mph78%30.02 "Hg10 mi
4:53 pm62 °FSunny.7 mph62%30.01 "Hg10 mi
3:53 pm65 °FSunny.9 mph52%30.02 "Hg10 mi
2:53 pm66 °FSunny.13 mph47%30.03 "Hg10 mi
1:53 pm67 °FSunny.14 mph42%30.04 "Hg10 mi
12:53 pm69 °FSunny.14 mph42%30.05 "Hg10 mi
11:53 am68 °FSunny.8 mph42%30.08 "Hg10 mi
10:53 am68 °FSunny.7 mph44%30.10 "Hg10 mi
9:53 am66 °FSunny.6 mph45%30.12 "Hg10 mi
8:53 am60 °FSunny.3 mph56%30.13 "Hg10 mi
7:53 am54 °FSunny.No wind59%30.14 "Hg10 mi
Weather by CustomWeather, © 2021

See weather overview